Terminal Aerodrome Forecast
Issued by NWS

Home | Current Version | Previous Version | Text Only | Print | Product List | Glossary On
Versions: 1 2 3 4 5 6 7 8 9 10 11 12 13 14 15
000
FTUS45 KFGZ 202320
TAFSEZ
TAF
KSEZ 202320Z 2100/2124 VRB06KT P6SM FEW140 OVC250
     FM210200 04011KT P6SM OVC250
     FM211600 VRB05KT P6SM BKN250=

USA.gov is the U.S. government's official web portal to all federal, state and local government web resources and services.